createdAt,value
2022-11-05T00:02:33.899Z,19.90
2022-11-05T00:05:24.113Z,19.90
2022-11-05T00:08:15.630Z,19.90
2022-11-05T00:10:49.210Z,19.90
2022-11-05T00:13:39.626Z,19.90
2022-11-05T00:19:18.579Z,19.90
2022-11-05T00:22:09.314Z,19.90
2022-11-05T00:24:59.662Z,19.90
2022-11-05T00:27:32.784Z,19.90
2022-11-05T00:30:05.982Z,19.80
2022-11-05T00:32:38.791Z,19.80
2022-11-05T00:35:12.745Z,19.90
2022-11-05T00:37:50.324Z,19.90
2022-11-05T00:40:22.557Z,19.90
2022-11-05T00:42:59.713Z,19.90
2022-11-05T00:45:32.732Z,19.90
2022-11-05T00:48:23.171Z,19.90
2022-11-05T00:50:57.309Z,20.00
2022-11-05T00:53:31.497Z,20.00
2022-11-05T00:56:04.298Z,20.10
2022-11-05T00:58:37.264Z,20.00
2022-11-05T01:01:10.880Z,20.10
2022-11-05T01:07:12.253Z,20.10
2022-11-05T01:09:25.640Z,20.10
2022-11-05T01:11:58.445Z,20.00
2022-11-05T01:14:31.648Z,20.00
2022-11-05T01:17:04.601Z,20.00
2022-11-05T01:19:37.880Z,20.00
2022-11-05T01:22:11.060Z,20.10
2022-11-05T01:24:44.033Z,20.10
2022-11-05T01:27:17.091Z,20.10
2022-11-05T01:29:50.004Z,20.10
2022-11-05T01:32:22.922Z,20.10
2022-11-05T01:34:55.687Z,20.00
2022-11-05T01:37:28.604Z,20.00
2022-11-05T01:40:01.594Z,20.00
2022-11-05T01:42:35.580Z,20.00
2022-11-05T01:45:16.237Z,20.00
2022-11-05T01:48:00.344Z,20.10
2022-11-05T01:50:47.018Z,20.10
2022-11-05T01:53:22.274Z,20.10
2022-11-05T01:56:03.816Z,20.20
2022-11-05T01:58:55.502Z,20.20
2022-11-05T02:01:28.545Z,20.30
2022-11-05T02:04:09.164Z,20.30
2022-11-05T02:06:48.432Z,20.30
2022-11-05T02:09:26.101Z,20.30
2022-11-05T02:11:59.016Z,20.30
2022-11-05T02:14:32.143Z,20.20
2022-11-05T02:17:29.024Z,20.20
2022-11-05T02:20:13.775Z,20.10
2022-11-05T02:22:57.282Z,20.10
2022-11-05T02:25:51.357Z,20.10
2022-11-05T02:28:57.827Z,20.10
2022-11-05T02:31:38.543Z,20.10
2022-11-05T02:34:19.530Z,20.00
2022-11-05T02:37:11.632Z,20.00
2022-11-05T02:39:55.580Z,20.00
2022-11-05T02:42:48.132Z,20.00
2022-11-05T02:45:41.596Z,19.90
2022-11-05T02:48:19.582Z,19.90
2022-11-05T02:51:22.467Z,19.90
2022-11-05T02:54:06.729Z,19.80
2022-11-05T02:56:42.632Z,19.80
2022-11-05T02:59:15.576Z,19.80
2022-11-05T03:01:50.245Z,19.70
2022-11-05T03:04:25.168Z,19.70
2022-11-05T03:07:00.131Z,19.70
2022-11-05T03:09:37.905Z,19.70
2022-11-05T03:12:29.384Z,19.70
2022-11-05T03:15:26.893Z,19.70
2022-11-05T03:18:13.559Z,19.60
2022-11-05T03:20:55.017Z,19.60
2022-11-05T03:23:54.487Z,19.60
2022-11-05T03:29:31.372Z,19.60
2022-11-05T03:32:10.715Z,19.60
2022-11-05T03:34:55.037Z,19.60
2022-11-05T03:37:39.020Z,19.60
2022-11-05T03:40:19.452Z,19.50
2022-11-05T03:43:05.571Z,19.50
2022-11-05T03:45:45.059Z,19.40
2022-11-05T03:48:38.745Z,19.40
2022-11-05T03:51:16.351Z,19.40
2022-11-05T03:54:11.636Z,19.40
2022-11-05T03:57:07.189Z,19.40
2022-11-05T04:02:37.636Z,19.30
2022-11-05T04:05:13.390Z,19.30
2022-11-05T04:08:13.874Z,19.30
2022-11-05T04:11:03.416Z,19.30
2022-11-05T04:16:49.804Z,19.20
2022-11-05T04:19:30.485Z,19.20
2022-11-05T04:22:29.013Z,19.20
2022-11-05T04:27:57.898Z,19.10
2022-11-05T04:30:31.052Z,19.00
2022-11-05T04:33:13.041Z,19.00
2022-11-05T04:38:43.360Z,19.00
2022-11-05T04:41:18.067Z,18.90
2022-11-05T04:43:51.312Z,18.90
2022-11-05T04:46:30.457Z,18.90
2022-11-05T04:49:20.778Z,18.90
2022-11-05T04:51:53.703Z,18.90
2022-11-05T04:54:30.087Z,18.90
2022-11-05T04:57:04.865Z,18.80
2022-11-05T04:59:39.692Z,18.80
2022-11-05T05:02:17.746Z,18.80
2022-11-05T05:04:55.811Z,18.70
2022-11-05T05:07:28.870Z,18.70
2022-11-05T05:10:06.172Z,18.70
2022-11-05T05:12:39.323Z,18.60
2022-11-05T05:15:18.759Z,18.60
2022-11-05T05:20:49.210Z,18.50
2022-11-05T05:23:23.522Z,18.50
2022-11-05T05:26:04.603Z,18.50
2022-11-05T05:28:42.117Z,18.50
2022-11-05T05:31:19.439Z,18.50
2022-11-05T05:34:02.207Z,18.50
2022-11-05T05:36:49.444Z,18.50
2022-11-05T05:39:23.737Z,18.50
2022-11-05T05:42:00.138Z,18.50
2022-11-05T05:44:50.085Z,18.50
2022-11-05T05:47:24.236Z,18.50
2022-11-05T05:49:57.386Z,18.40
2022-11-05T05:55:27.340Z,18.40
2022-11-05T06:00:50.894Z,18.40
2022-11-05T06:03:23.930Z,18.30
2022-11-05T06:05:58.746Z,18.30
2022-11-05T06:08:32.367Z,18.30
2022-11-05T06:11:06.279Z,18.30
2022-11-05T06:13:39.254Z,18.30
2022-11-05T06:16:13.648Z,18.20
2022-11-05T06:18:46.787Z,18.20
2022-11-05T06:21:21.222Z,18.20
2022-11-05T06:23:54.641Z,18.20
2022-11-05T06:26:30.211Z,18.20
2022-11-05T06:29:03.315Z,18.20
2022-11-05T06:31:36.233Z,18.20
2022-11-05T06:34:09.221Z,18.20
2022-11-05T06:36:42.651Z,18.20
2022-11-05T06:39:16.735Z,18.20
2022-11-05T06:42:18.054Z,18.10
2022-11-05T06:44:24.321Z,18.10
2022-11-05T06:46:57.228Z,18.10
2022-11-05T06:49:30.196Z,18.10
2022-11-05T06:52:03.216Z,18.00
2022-11-05T06:54:36.185Z,18.00
2022-11-05T06:57:10.336Z,18.00
2022-11-05T06:59:46.328Z,18.00
2022-11-05T07:02:22.777Z,18.00
2022-11-05T07:04:54.340Z,18.00
2022-11-05T07:07:27.393Z,18.00
2022-11-05T07:10:01.024Z,18.00
2022-11-05T07:12:34.277Z,18.00
2022-11-05T07:15:07.728Z,17.90
2022-11-05T07:17:41.076Z,17.90
2022-11-05T07:20:14.460Z,17.90
2022-11-05T07:22:48.164Z,17.80
2022-11-05T07:25:21.456Z,17.80
2022-11-05T07:27:54.592Z,17.80
2022-11-05T07:30:28.131Z,17.80
2022-11-05T07:33:01.227Z,17.80
2022-11-05T07:35:34.087Z,17.70
2022-11-05T07:38:07.134Z,17.70
2022-11-05T07:40:40.380Z,17.70
2022-11-05T07:43:13.593Z,17.70
2022-11-05T07:45:48.210Z,17.70
2022-11-05T07:48:21.092Z,17.60
2022-11-05T07:50:56.030Z,17.60
2022-11-05T07:53:28.738Z,17.60
2022-11-05T07:56:05.925Z,17.60
2022-11-05T07:58:40.112Z,17.60
2022-11-05T08:01:13.215Z,17.50
2022-11-05T08:03:46.431Z,17.50
2022-11-05T08:06:19.475Z,17.50
2022-11-05T08:08:52.582Z,17.40
2022-11-05T08:11:25.551Z,17.40
2022-11-05T08:13:58.518Z,17.40
2022-11-05T08:16:31.572Z,17.40
2022-11-05T08:19:04.501Z,17.40
2022-11-05T08:21:40.714Z,17.40
2022-11-05T08:24:14.834Z,17.40
2022-11-05T08:26:47.819Z,17.40
2022-11-05T08:29:20.828Z,17.40
2022-11-05T08:31:53.788Z,17.40
2022-11-05T08:34:26.624Z,17.40
2022-11-05T08:36:59.643Z,17.40
2022-11-05T08:39:32.579Z,17.40
2022-11-05T08:42:05.668Z,17.40
2022-11-05T08:44:39.178Z,17.40
2022-11-05T08:47:12.129Z,17.40
2022-11-05T08:49:45.462Z,17.30
2022-11-05T08:52:26.848Z,17.30
2022-11-05T08:55:04.306Z,17.30
2022-11-05T08:57:47.530Z,17.20
2022-11-05T09:00:21.238Z,17.20
2022-11-05T09:02:56.912Z,17.20
2022-11-05T09:05:39.263Z,17.20
2022-11-05T09:08:17.635Z,17.20
2022-11-05T09:10:51.820Z,17.10
2022-11-05T09:13:31.075Z,17.10
2022-11-05T09:16:05.181Z,17.10
2022-11-05T09:18:40.073Z,17.10
2022-11-05T09:21:14.150Z,17.10
2022-11-05T09:23:47.537Z,17.10
2022-11-05T09:26:22.332Z,17.10
2022-11-05T09:28:56.090Z,17.10
2022-11-05T09:31:29.047Z,17.10
2022-11-05T09:34:02.194Z,17.10
2022-11-05T09:36:35.144Z,17.10
2022-11-05T09:39:08.022Z,17.10
2022-11-05T09:41:43.739Z,17.10
2022-11-05T09:44:21.876Z,17.10
2022-11-05T09:47:00.882Z,17.10
2022-11-05T09:49:38.502Z,17.00
2022-11-05T09:52:19.286Z,17.00
2022-11-05T09:54:52.332Z,17.10
2022-11-05T09:57:27.237Z,17.10
2022-11-05T10:00:04.973Z,17.00
2022-11-05T10:02:43.854Z,17.10
2022-11-05T10:05:22.138Z,17.10
2022-11-05T10:08:09.202Z,17.00
2022-11-05T10:10:44.421Z,17.00
2022-11-05T10:13:19.436Z,17.00
2022-11-05T10:16:02.851Z,16.90
2022-11-05T10:18:43.375Z,16.90
2022-11-05T10:21:27.804Z,16.90
2022-11-05T10:23:56.593Z,16.90
2022-11-05T10:26:32.259Z,16.80
2022-11-05T10:29:10.064Z,16.80
2022-11-05T10:31:43.285Z,16.80
2022-11-05T10:34:17.336Z,16.80
2022-11-05T10:36:50.503Z,16.80
2022-11-05T10:39:26.976Z,16.80
2022-11-05T10:42:25.718Z,16.80
2022-11-05T10:45:06.301Z,16.80
2022-11-05T10:47:59.023Z,16.80
2022-11-05T10:50:34.387Z,16.80
2022-11-05T10:53:12.948Z,16.80
2022-11-05T10:55:51.100Z,16.80
2022-11-05T10:58:26.671Z,16.70
2022-11-05T11:01:01.663Z,16.70
2022-11-05T11:03:54.673Z,16.70
2022-11-05T11:06:36.425Z,16.70
2022-11-05T11:09:11.752Z,16.70
2022-11-05T11:11:46.703Z,16.60
2022-11-05T11:14:22.822Z,16.60
2022-11-05T11:17:04.647Z,16.60
2022-11-05T11:19:48.714Z,16.60
2022-11-05T11:22:23.223Z,16.60
2022-11-05T11:24:56.894Z,16.60
2022-11-05T11:27:35.562Z,16.50
2022-11-05T11:30:10.154Z,16.50
2022-11-05T11:32:43.439Z,16.50
2022-11-05T11:35:25.771Z,16.50
2022-11-05T11:38:00.513Z,16.50
2022-11-05T11:40:38.926Z,16.50
2022-11-05T11:43:19.668Z,16.40
2022-11-05T11:45:54.450Z,16.40
2022-11-05T11:48:36.797Z,16.40
2022-11-05T11:51:37.077Z,16.30
2022-11-05T11:54:11.520Z,16.30
2022-11-05T11:56:51.566Z,16.20
2022-11-05T12:00:01.973Z,16.20
2022-11-05T12:02:20.691Z,16.20
2022-11-05T12:04:59.065Z,16.10
2022-11-05T12:07:33.774Z,16.10
2022-11-05T12:10:20.500Z,16.10
2022-11-05T12:13:17.532Z,16.10
2022-11-05T12:16:10.200Z,16.00
2022-11-05T12:18:53.894Z,16.00
2022-11-05T12:21:51.555Z,15.90
2022-11-05T12:24:19.477Z,15.90
2022-11-05T12:26:57.411Z,15.90
2022-11-05T12:29:35.733Z,15.90
2022-11-05T12:32:25.302Z,15.90
2022-11-05T12:35:09.433Z,15.80
2022-11-05T12:37:53.352Z,15.80
2022-11-05T12:40:46.431Z,15.80
2022-11-05T12:43:39.112Z,15.80
2022-11-05T12:46:14.178Z,15.80
2022-11-05T12:49:03.882Z,15.80
2022-11-05T12:52:01.267Z,15.80
2022-11-05T12:54:51.371Z,15.80
2022-11-05T12:57:25.874Z,15.80
2022-11-05T13:00:15.306Z,15.80
2022-11-05T13:03:05.108Z,15.80
2022-11-05T13:05:49.043Z,15.80
2022-11-05T13:08:23.869Z,15.90
2022-11-05T13:11:01.709Z,15.90
2022-11-05T13:13:42.260Z,15.90
2022-11-05T13:16:35.869Z,16.00
2022-11-05T13:19:26.187Z,15.90
2022-11-05T13:22:11.186Z,15.90
2022-11-05T13:24:45.912Z,15.90
2022-11-05T13:27:29.697Z,15.90
2022-11-05T13:30:11.318Z,16.00
2022-11-05T13:32:46.755Z,16.00
2022-11-05T13:35:21.833Z,16.00
2022-11-05T13:38:14.005Z,16.00
2022-11-05T13:41:06.669Z,16.00
2022-11-05T13:43:51.215Z,16.00
2022-11-05T13:46:48.160Z,16.00
2022-11-05T13:49:31.888Z,16.00
2022-11-05T13:52:35.759Z,16.00
2022-11-05T13:55:35.997Z,15.90
2022-11-05T13:58:17.113Z,15.80
2022-11-05T14:01:25.571Z,15.80
2022-11-05T14:03:59.912Z,15.80
2022-11-05T14:06:37.772Z,15.80
2022-11-05T14:09:12.950Z,15.80
2022-11-05T14:11:47.954Z,15.90
2022-11-05T14:14:22.952Z,15.80
2022-11-05T14:17:12.863Z,15.90
2022-11-05T14:20:08.697Z,15.90
2022-11-05T14:22:43.581Z,15.90
2022-11-05T14:25:31.297Z,15.80
2022-11-05T14:28:04.173Z,15.80
2022-11-05T14:30:48.059Z,15.80
2022-11-05T14:33:22.938Z,15.80
2022-11-05T14:36:00.340Z,15.80
2022-11-05T14:38:33.182Z,15.80
2022-11-05T14:41:06.963Z,15.80
2022-11-05T14:43:42.061Z,15.80
2022-11-05T14:46:17.909Z,15.80
2022-11-05T14:48:55.765Z,15.80
2022-11-05T14:51:42.490Z,15.80
2022-11-05T14:54:26.135Z,15.80
2022-11-05T14:57:01.124Z,15.70
2022-11-05T14:59:36.087Z,15.70
2022-11-05T15:02:22.453Z,15.70
2022-11-05T15:04:57.789Z,15.60
2022-11-05T15:07:41.207Z,15.60
2022-11-05T15:10:23.131Z,15.60
2022-11-05T15:13:00.862Z,15.50
2022-11-05T15:15:35.795Z,15.50
2022-11-05T15:18:17.119Z,15.50
2022-11-05T15:20:51.763Z,15.50
2022-11-05T15:23:26.078Z,15.50
2022-11-05T15:26:16.169Z,15.50
2022-11-05T15:28:57.077Z,15.40
2022-11-05T15:31:47.360Z,15.40
2022-11-05T15:34:32.815Z,15.40
2022-11-05T15:37:07.658Z,15.30
2022-11-05T15:39:59.358Z,15.30
2022-11-05T15:42:33.753Z,15.30
2022-11-05T15:45:21.648Z,15.30
2022-11-05T15:47:55.628Z,15.30
2022-11-05T15:50:28.544Z,15.30
2022-11-05T15:53:20.727Z,15.20
2022-11-05T15:55:36.735Z,15.20
2022-11-05T15:58:17.038Z,15.20
2022-11-05T16:00:51.522Z,15.20
2022-11-05T16:03:29.261Z,15.20
2022-11-05T16:06:09.314Z,15.20
2022-11-05T16:08:42.206Z,15.20
2022-11-05T16:11:17.918Z,15.10
2022-11-05T16:13:50.977Z,15.10
2022-11-05T16:16:27.370Z,15.10
2022-11-05T16:19:00.558Z,15.10
2022-11-05T16:21:33.529Z,15.00
2022-11-05T16:24:08.033Z,15.00
2022-11-05T16:29:23.836Z,15.00
2022-11-05T16:32:00.124Z,15.00
2022-11-05T16:34:42.490Z,15.00
2022-11-05T16:37:20.837Z,15.00
2022-11-05T16:40:01.849Z,15.00
2022-11-05T16:42:38.320Z,14.90
2022-11-05T16:45:20.615Z,14.90
2022-11-05T16:47:53.316Z,14.90
2022-11-05T16:50:30.948Z,14.90
2022-11-05T16:53:07.038Z,14.90
2022-11-05T16:55:41.401Z,15.00
2022-11-05T16:58:23.660Z,15.00
2022-11-05T17:01:10.552Z,15.00
2022-11-05T17:03:46.220Z,15.00
2022-11-05T17:06:29.180Z,15.00
2022-11-05T17:09:02.542Z,15.00
2022-11-05T17:11:35.533Z,15.00
2022-11-05T17:14:08.581Z,15.00
2022-11-05T17:16:43.074Z,15.00
2022-11-05T17:19:24.251Z,15.00
2022-11-05T17:21:57.279Z,15.00
2022-11-05T17:24:31.379Z,15.00
2022-11-05T17:27:07.634Z,15.00
2022-11-05T17:29:40.514Z,15.00
2022-11-05T17:32:13.728Z,15.00
2022-11-05T17:34:47.040Z,15.00
2022-11-05T17:37:23.859Z,15.00
2022-11-05T17:39:57.293Z,15.00
2022-11-05T17:42:31.358Z,15.00
2022-11-05T17:45:04.427Z,15.00
2022-11-05T17:47:37.595Z,15.00
2022-11-05T17:50:11.681Z,15.00
2022-11-05T17:52:44.825Z,15.00
2022-11-05T17:55:20.988Z,15.10
2022-11-05T17:57:55.012Z,15.10
2022-11-05T18:00:29.552Z,15.10
2022-11-05T18:03:03.672Z,15.10
2022-11-05T18:05:37.581Z,15.10
2022-11-05T18:08:11.129Z,15.10
2022-11-05T18:10:44.634Z,15.10
2022-11-05T18:22:32.883Z,15.30
2022-11-05T18:31:38.744Z,15.40
2022-11-05T18:53:04.926Z,15.90
2022-11-05T18:55:38.948Z,15.90
2022-11-05T18:58:16.841Z,16.00
2022-11-05T19:00:51.269Z,16.10
2022-11-05T19:03:25.680Z,16.10
2022-11-05T19:06:00.306Z,16.20
2022-11-05T19:08:38.550Z,16.20
2022-11-05T19:11:16.931Z,16.30
2022-11-05T19:13:56.702Z,16.30
2022-11-05T19:16:32.690Z,16.30
2022-11-05T19:19:09.012Z,16.30
2022-11-05T19:21:42.804Z,16.40
2022-11-05T19:24:17.636Z,16.40
2022-11-05T19:26:52.869Z,16.50
2022-11-05T19:29:26.771Z,16.60
2022-11-05T19:32:01.509Z,16.70
2022-11-05T19:34:34.588Z,16.70
2022-11-05T19:37:09.228Z,16.80
2022-11-05T19:39:47.330Z,16.90
2022-11-05T19:42:21.850Z,17.00
2022-11-05T19:45:23.111Z,17.10
2022-11-05T19:47:36.788Z,17.10
2022-11-05T19:50:11.387Z,17.20
2022-11-05T19:52:45.035Z,17.30
2022-11-05T19:55:19.224Z,17.40
2022-11-05T19:57:52.216Z,17.50
2022-11-05T20:00:25.217Z,17.50
2022-11-05T20:02:58.352Z,17.60
2022-11-05T20:05:31.535Z,17.80
2022-11-05T20:08:04.472Z,17.90
2022-11-05T20:10:38.966Z,18.00
2022-11-05T20:13:16.988Z,18.10
2022-11-05T20:15:45.817Z,18.10
2022-11-05T20:18:23.523Z,18.20
2022-11-05T20:23:44.715Z,18.30
2022-11-05T20:26:18.222Z,18.30
2022-11-05T20:28:51.290Z,18.40
2022-11-05T20:31:24.715Z,18.50
2022-11-05T20:33:57.824Z,18.60
2022-11-05T20:36:30.857Z,18.70
2022-11-05T20:39:04.766Z,18.80
2022-11-05T20:41:37.823Z,18.90
2022-11-05T20:44:10.871Z,18.90
2022-11-05T20:46:43.934Z,19.00
2022-11-05T20:49:40.859Z,19.10
2022-11-05T20:52:14.063Z,19.10
2022-11-05T20:54:47.334Z,19.20
2022-11-05T20:57:20.420Z,19.20
2022-11-05T20:59:53.408Z,19.30
2022-11-05T21:02:26.600Z,19.40
2022-11-05T21:04:59.632Z,19.40
2022-11-05T21:07:32.741Z,19.40
2022-11-05T21:10:05.772Z,19.50
2022-11-05T21:12:38.667Z,19.60
2022-11-05T21:15:12.403Z,19.60
2022-11-05T21:17:45.875Z,19.60
2022-11-05T21:20:23.245Z,19.70
2022-11-05T21:22:56.269Z,19.70
2022-11-05T21:25:29.313Z,19.80
2022-11-05T21:28:05.584Z,19.80
2022-11-05T21:30:44.974Z,19.90
2022-11-05T21:33:20.076Z,20.00
2022-11-05T21:35:55.482Z,20.10
2022-11-05T21:38:32.264Z,20.10
2022-11-05T21:41:09.051Z,20.20
2022-11-05T21:43:44.288Z,20.20
2022-11-05T21:46:17.580Z,20.30
2022-11-05T21:48:50.766Z,20.30
2022-11-05T21:51:41.590Z,20.40
2022-11-05T21:54:32.354Z,20.50
2022-11-05T21:57:22.972Z,20.50
2022-11-05T21:59:57.185Z,20.50
2022-11-05T22:02:31.631Z,20.60
2022-11-05T22:05:05.099Z,20.60
2022-11-05T22:07:39.732Z,20.70
2022-11-05T22:10:40.648Z,20.70
2022-11-05T22:13:06.268Z,20.80
2022-11-05T22:15:39.379Z,20.80
2022-11-05T22:18:15.562Z,20.90
2022-11-05T22:20:48.804Z,20.90
2022-11-05T22:23:21.713Z,20.90
2022-11-05T22:25:56.251Z,20.90
2022-11-05T22:28:29.202Z,21.00
2022-11-05T22:31:02.106Z,21.00
2022-11-05T22:33:35.743Z,21.10
2022-11-05T22:36:08.964Z,21.10
2022-11-05T22:38:45.789Z,21.10
2022-11-05T22:41:20.834Z,21.20
2022-11-05T22:43:54.544Z,21.20
2022-11-05T22:46:29.367Z,21.20
2022-11-05T22:49:02.998Z,21.30
2022-11-05T22:51:53.879Z,21.40
2022-11-05T22:54:26.319Z,21.40
2022-11-05T22:56:59.274Z,21.40
2022-11-05T22:59:35.844Z,21.50
2022-11-05T23:02:10.148Z,21.60
2022-11-05T23:04:44.084Z,21.60
2022-11-05T23:07:49.832Z,21.70
2022-11-05T23:13:37.142Z,21.70
2022-11-05T23:16:48.937Z,21.80
2022-11-05T23:20:09.941Z,21.80
2022-11-05T23:22:57.994Z,21.80
2022-11-05T23:25:35.264Z,21.80
2022-11-05T23:28:21.873Z,21.80
2022-11-05T23:31:15.071Z,21.90
2022-11-05T23:33:50.821Z,21.90
2022-11-05T23:36:42.086Z,21.90
2022-11-05T23:39:15.837Z,21.80
2022-11-05T23:42:06.093Z,21.80
2022-11-05T23:44:58.840Z,21.80
2022-11-05T23:47:55.495Z,21.70
2022-11-05T23:50:39.588Z,21.60
2022-11-05T23:53:09.374Z,21.60
2022-11-05T23:55:42.409Z,21.50
2022-11-05T23:58:18.825Z,21.50
